Impacts TAF Board
For situational awareness. Not to be used for flight planning purposes.
IDs:

KNEW - New Orleans/Lakefron, LA, US

Issued at 1741 UTC 12 Dec 2018
Updated at 1913 UTC 12 Dec 2018
Potential Impact None Slight Moderate High
Time1853Z 12/20Z 12/21Z 12/22Z 12/23Z 13/00Z 13/01Z 13/02Z 13/03Z 13/04Z 13/05Z 13/06Z 13/07Z 13/08Z>>
Type OBS PRVL PRVL PRVL PRVL PRVL PRVL PRVL PRVL PRVL PRVL PRVL PRVL PRVL
VIS 10 >6 >6 >6 >6 >6 >6 >6 >6 >6 >6 >6 >6 >6
CIG -- 230 230 230 230 230 230 230 230 230 230 80 80 80
Cover CLR BKN BKN BKN BKN BKN BKN BKN BKN BKN BKN OVC OVC OVC
FltCat VFR VFR VFR VFR VFR VFR VFR VFR VFR VFR VFR VFR VFR VFR
WX -- -- -- -- -- -- -- -- -- -- -- -- -- --
WDir 90 120 120 120 120 120 120 120 120 120 120 130 130 130
WSpd 7 7 7 7 7 7 7 7 7 7 7 6 6 6
WGst -- -- -- -- -- -- -- -- -- -- -- -- -- --
Raw TAF
KNEW 121741Z 1218/1318 12007KT P6SM BKN230
  FM130600 13006KT P6SM OVC080
  FM131200 12007KT 6SM -SHRA OVC050
  FM131600 13010G19KT 6SM -SHRA OVC027


Raw METAR
KNEW 121853Z 09007KT 10SM CLR 15/09 A3018 RMK AO2 PRESFR SLP213 T01500094
KNEW 121753Z 15007KT 10SM CLR 14/09 A3021 RMK AO2 SLP224 T01440094 10150 20083 58019
KNEW 121653Z 05003KT 10SM CLR 13/09 A3025 RMK AO2 SLP236 T01330089

METAR Board
For situational awareness. Not to be used for flight planning purposes.